Time;durP1;ratioP1;P1;durP2;ratioP2;P2;SDS_P1;SDS_P2;PMS_P1;PMS_P2;Temp;Humidity;BMP_temperature;BMP_pressure;BME280_temperature;BME280_humidity;BME280_pressure;Samples;Min_cycle;Max_cycle;Signal;HPM_P1;HPM_P2
2023/03/06 00:00:54;;;;;;;3.65;2.20;;;3.00;99.90;;;;;;4988458;28;20081;-73
2023/03/06 00:03:21;;;;;;;4.35;2.38;;;3.00;99.90;;;;;;4988074;28;20026;-73
2023/03/06 00:05:46;;;;;;;8.32;2.65;;;3.10;99.90;;;;;;4971130;28;20030;-73
2023/03/06 00:08:12;;;;;;;5.78;2.10;;;3.10;99.90;;;;;;4987700;28;20038;-73
2023/03/06 00:10:39;;;;;;;14.07;2.78;;;3.10;99.90;;;;;;4989489;28;20033;-73
2023/03/06 00:13:07;;;;;;;5.60;2.28;;;3.10;99.90;;;;;;4988269;28;20041;-74
2023/03/06 00:15:33;;;;;;;3.60;1.88;;;3.10;99.90;;;;;;4991884;28;20045;-74
2023/03/06 00:17:59;;;;;;;3.75;2.00;;;3.10;99.90;;;;;;4985782;28;20391;-73
2023/03/06 00:20:25;;;;;;;3.75;1.90;;;3.10;99.90;;;;;;4986445;28;20386;-72
2023/03/06 00:22:51;;;;;;;9.48;2.75;;;3.10;99.90;;;;;;4993043;28;20031;-73
2023/03/06 00:25:19;;;;;;;9.18;3.25;;;3.10;99.90;;;;;;4989997;28;20563;-73
2023/03/06 00:27:45;;;;;;;6.10;2.47;;;3.10;99.90;;;;;;4972193;28;20034;-73
2023/03/06 00:30:14;;;;;;;6.13;2.85;;;3.00;99.90;;;;;;4970858;28;20121;-72
2023/03/06 00:32:40;;;;;;;4.03;2.70;;;3.00;99.90;;;;;;4986865;28;20030;-72
2023/03/06 00:35:06;;;;;;;5.25;2.95;;;3.10;99.90;;;;;;4970661;28;20034;-73
2023/03/06 00:37:32;;;;;;;5.60;2.40;;;3.00;99.90;;;;;;4987761;28;20406;-73
2023/03/06 00:39:57;;;;;;;4.70;2.72;;;3.10;99.90;;;;;;4989100;28;20038;-73
2023/03/06 00:42:23;;;;;;;4.05;2.53;;;3.10;99.90;;;;;;4970871;28;20035;-73
2023/03/06 00:44:49;;;;;;;6.85;2.95;;;3.00;99.90;;;;;;4989003;28;20179;-74
2023/03/06 00:47:17;;;;;;;8.13;3.78;;;3.00;99.90;;;;;;4987857;28;20041;-73
2023/03/06 00:49:45;;;;;;;9.73;2.65;;;3.00;99.90;;;;;;4990204;28;20547;-73
2023/03/06 00:52:12;;;;;;;3.97;2.38;;;3.00;99.90;;;;;;4986645;28;20039;-73
2023/03/06 00:54:38;;;;;;;4.55;2.67;;;3.00;99.90;;;;;;4987514;28;20112;-72
2023/03/06 00:57:04;;;;;;;4.25;2.55;;;3.00;99.90;;;;;;4992716;28;20042;-73
2023/03/06 00:59:29;;;;;;;5.75;3.80;;;3.00;99.90;;;;;;4987539;28;20085;-73
2023/03/06 01:01:55;;;;;;;9.95;3.58;;;3.00;99.90;;;;;;4987393;28;20039;-73
2023/03/06 01:04:21;;;;;;;11.68;3.70;;;3.00;99.90;;;;;;4988424;28;20053;-72
2023/03/06 01:06:46;;;;;;;11.15;4.30;;;3.00;99.90;;;;;;4972556;28;20089;-73
2023/03/06 01:09:12;;;;;;;9.10;4.03;;;2.90;99.90;;;;;;4987269;28;20125;-73
2023/03/06 01:11:38;;;;;;;9.32;4.88;;;3.00;99.90;;;;;;4987378;28;20033;-72
2023/03/06 01:14:03;;;;;;;8.93;4.88;;;2.90;99.90;;;;;;4989905;28;20109;-73
2023/03/06 01:16:29;;;;;;;7.45;3.83;;;2.90;99.90;;;;;;4970359;28;20125;-72
2023/03/06 01:18:55;;;;;;;8.55;4.28;;;2.90;99.90;;;;;;4970317;28;20030;-72
2023/03/06 01:21:20;;;;;;;9.15;3.88;;;2.90;99.90;;;;;;4970166;28;20042;-73
2023/03/06 01:23:46;;;;;;;7.70;4.35;;;2.80;99.90;;;;;;4987004;28;20491;-73
2023/03/06 01:26:12;;;;;;;9.88;4.60;;;2.80;99.90;;;;;;4988928;28;20033;-72
2023/03/06 01:28:39;;;;;;;8.65;4.60;;;2.80;99.90;;;;;;4987690;28;20030;-72
2023/03/06 01:31:06;;;;;;;9.48;4.03;;;2.70;99.90;;;;;;4987201;28;20511;-72
2023/03/06 01:33:32;;;;;;;7.95;4.53;;;2.70;99.90;;;;;;4969606;28;20038;-73
2023/03/06 01:35:58;;;;;;;11.10;4.85;;;2.60;99.90;;;;;;4987339;28;20038;-73
2023/03/06 01:38:24;;;;;;;10.20;4.72;;;2.60;99.90;;;;;;4987604;28;20042;-73
2023/03/06 01:40:49;;;;;;;8.73;4.50;;;2.50;99.90;;;;;;4988648;28;20031;-74
2023/03/06 01:43:33;;;;;;;8.13;4.40;;;2.50;99.90;;;;;;4989049;28;20042;-73
2023/03/06 01:46:27;;;;;;;12.27;4.63;;;2.40;99.90;;;;;;4971856;28;20043;-73
2023/03/06 01:49:16;;;;;;;14.57;6.38;;;2.40;99.90;;;;;;4967022;28;20069;-74
2023/03/06 01:52:00;;;;;;;11.25;5.00;;;2.40;99.90;;;;;;4981388;28;20134;-74
2023/03/06 01:54:28;;;;;;;8.60;4.78;;;2.30;99.90;;;;;;4964266;28;20031;-76
2023/03/06 01:57:13;;;;;;;8.60;4.72;;;2.30;99.90;;;;;;4969962;28;20411;-73
2023/03/06 01:59:41;;;;;;;10.02;4.68;;;2.30;99.90;;;;;;4971546;28;20034;-73
2023/03/06 02:02:09;;;;;;;8.50;4.35;;;2.20;99.90;;;;;;4973051;28;20210;-73
2023/03/06 02:04:36;;;;;;;10.25;4.32;;;2.20;99.90;;;;;;4987169;28;20039;-73
2023/03/06 02:07:03;;;;;;;10.05;4.53;;;2.20;99.90;;;;;;4979485;28;20085;-72
2023/03/06 02:09:31;;;;;;;8.00;4.20;;;2.20;99.90;;;;;;4968906;28;20109;-73
2023/03/06 02:11:58;;;;;;;9.95;3.97;;;2.10;99.90;;;;;;4969266;28;20118;-73
2023/03/06 02:14:24;;;;;;;7.93;3.33;;;2.10;99.90;;;;;;4968293;28;20041;-72
2023/03/06 02:16:53;;;;;;;10.23;5.10;;;2.10;99.90;;;;;;4968631;28;20034;-73
2023/03/06 02:19:41;;;;;;;8.98;4.63;;;2.00;99.90;;;;;;4967733;28;20038;-73
2023/03/06 02:22:07;;;;;;;8.27;4.18;;;2.00;99.90;;;;;;4966401;28;20035;-74
2023/03/06 02:25:18;;;;;;;8.70;3.72;;;2.00;99.90;;;;;;4967709;28;20461;-73
2023/03/06 02:27:43;;;;;;;9.70;4.43;;;2.10;99.90;;;;;;4966400;28;20114;-73
2023/03/06 02:30:11;;;;;;;6.88;3.83;;;2.10;99.90;;;;;;4967485;28;20031;-73
2023/03/06 02:32:37;;;;;;;7.38;4.53;;;2.20;99.90;;;;;;4967001;28;20051;-73
2023/03/06 02:35:03;;;;;;;10.10;4.32;;;2.20;99.90;;;;;;4967229;28;20042;-74
2023/03/06 02:37:29;;;;;;;13.52;4.53;;;2.20;99.90;;;;;;4965892;28;20043;-73
2023/03/06 02:40:04;;;;;;;6.30;3.40;;;2.30;99.90;;;;;;4967579;28;20110;-74
2023/03/06 02:42:30;;;;;;;5.93;3.40;;;2.30;99.90;;;;;;4967956;28;20769;-73
2023/03/06 02:44:59;;;;;;;6.15;3.25;;;2.40;99.90;;;;;;4971151;28;20027;-73
2023/03/06 02:47:25;;;;;;;8.38;3.70;;;2.40;99.90;;;;;;4970780;28;20526;-73
2023/03/06 02:49:51;;;;;;;7.18;3.60;;;2.40;99.90;;;;;;4970983;28;20027;-73
2023/03/06 02:52:17;;;;;;;8.60;3.67;;;2.50;99.90;;;;;;4970966;28;20043;-73
2023/03/06 02:54:42;;;;;;;5.75;3.20;;;2.50;99.90;;;;;;4970542;28;20069;-72
2023/03/06 02:57:08;;;;;;;11.30;4.03;;;2.50;99.90;;;;;;4970732;28;20034;-73
2023/03/06 02:59:33;;;;;;;5.72;3.10;;;2.50;99.90;;;;;;4970630;28;20039;-72
2023/03/06 03:01:59;;;;;;;4.75;2.80;;;2.50;99.90;;;;;;4971426;28;20481;-73
2023/03/06 03:04:25;;;;;;;6.72;3.45;;;2.60;99.90;;;;;;4971292;28;20055;-73
2023/03/06 03:06:50;;;;;;;5.80;2.95;;;2.60;99.90;;;;;;4970909;28;20031;-72
2023/03/06 03:09:16;;;;;;;5.03;2.88;;;2.60;99.90;;;;;;4970959;28;20053;-73
2023/03/06 03:11:42;;;;;;;5.45;3.03;;;2.70;99.90;;;;;;4970410;28;20035;-73
2023/03/06 03:14:07;;;;;;;12.23;2.85;;;2.60;99.90;;;;;;4968889;28;20069;-73
2023/03/06 03:16:33;;;;;;;7.03;3.03;;;2.70;99.90;;;;;;4970635;28;20492;-73
2023/03/06 03:18:58;;;;;;;7.25;2.95;;;2.60;99.90;;;;;;4970356;28;20039;-73
2023/03/06 03:21:24;;;;;;;5.30;2.28;;;2.70;99.90;;;;;;4971263;28;20037;-72
2023/03/06 03:23:49;;;;;;;5.03;2.50;;;2.70;99.90;;;;;;4970280;28;20395;-72
2023/03/06 03:26:18;;;;;;;5.60;2.28;;;2.70;99.90;;;;;;4971975;28;20035;-72
2023/03/06 03:28:44;;;;;;;5.50;2.28;;;2.70;99.90;;;;;;4969614;28;20097;-73
2023/03/06 03:31:11;;;;;;;7.57;2.50;;;2.70;99.90;;;;;;4968744;28;20056;-73
2023/03/06 03:33:37;;;;;;;4.00;2.38;;;2.80;99.90;;;;;;4968693;28;20045;-72
2023/03/06 03:36:04;;;;;;;9.73;2.67;;;2.80;99.90;;;;;;4967617;28;20042;-73
2023/03/06 03:38:30;;;;;;;3.88;2.42;;;2.80;99.90;;;;;;4969992;28;20031;-73
2023/03/06 03:40:56;;;;;;;4.60;2.42;;;2.80;99.90;;;;;;4976573;28;20039;-73
2023/03/06 03:43:22;;;;;;;5.25;2.55;;;2.80;99.90;;;;;;4973997;28;20482;-72
2023/03/06 03:45:47;;;;;;;6.43;2.50;;;2.90;99.90;;;;;;4972463;28;20035;-73
2023/03/06 03:48:13;;;;;;;6.05;2.22;;;2.80;99.90;;;;;;4972307;28;20392;-72
2023/03/06 03:50:38;;;;;;;3.05;2.10;;;2.90;99.90;;;;;;4968282;28;20062;-73
2023/03/06 03:53:04;;;;;;;4.00;2.10;;;2.90;99.90;;;;;;4968680;28;20027;-73
2023/03/06 03:55:30;;;;;;;5.20;1.98;;;3.00;99.90;;;;;;4969814;28;20089;-72
2023/03/06 03:57:55;;;;;;;6.40;2.47;;;2.90;99.90;;;;;;4969856;28;20027;-73
2023/03/06 04:00:21;;;;;;;4.40;2.05;;;2.90;99.90;;;;;;4976673;28;20506;-73
2023/03/06 04:02:47;;;;;;;4.70;2.08;;;2.90;99.90;;;;;;4969412;28;20077;-72
2023/03/06 04:05:14;;;;;;;5.10;2.20;;;2.90;99.90;;;;;;4973062;28;20023;-72
2023/03/06 04:07:41;;;;;;;6.07;2.63;;;2.90;99.90;;;;;;4969536;28;20046;-72
2023/03/06 04:10:08;;;;;;;5.40;2.20;;;2.90;99.90;;;;;;4969169;28;20115;-73
2023/03/06 04:12:34;;;;;;;9.50;2.75;;;2.90;99.90;;;;;;4968903;28;20043;-73
2023/03/06 04:15:00;;;;;;;5.95;2.05;;;2.90;99.90;;;;;;4972558;28;20030;-74
2023/03/06 04:17:26;;;;;;;5.45;2.42;;;3.00;99.90;;;;;;4969696;28;20058;-73
2023/03/06 04:19:52;;;;;;;6.13;3.08;;;3.00;99.90;;;;;;4967663;28;20034;-73
2023/03/06 04:22:17;;;;;;;5.93;2.58;;;3.00;99.90;;;;;;4972248;28;20101;-73
2023/03/06 04:24:43;;;;;;;7.10;2.85;;;3.00;99.90;;;;;;4969456;28;20035;-73
2023/03/06 04:27:08;;;;;;;7.43;2.70;;;3.10;99.90;;;;;;4971309;28;20041;-73
2023/03/06 04:29:34;;;;;;;15.48;3.15;;;3.00;99.90;;;;;;4967408;28;20039;-73
2023/03/06 04:32:00;;;;;;;4.70;2.67;;;3.10;99.90;;;;;;4969111;28;20049;-73
2023/03/06 04:34:25;;;;;;;5.30;2.55;;;3.10;99.90;;;;;;4967754;28;20122;-72
2023/03/06 04:36:51;;;;;;;9.93;2.58;;;3.10;99.90;;;;;;4967392;28;20511;-72
2023/03/06 04:39:16;;;;;;;6.78;2.40;;;3.10;99.90;;;;;;4966914;28;20118;-72
2023/03/06 04:41:42;;;;;;;6.00;2.55;;;3.10;99.90;;;;;;4968586;28;20038;-72
2023/03/06 04:44:08;;;;;;;7.07;2.30;;;3.10;99.90;;;;;;4973186;28;20030;-72
2023/03/06 04:46:34;;;;;;;10.40;3.50;;;3.10;99.90;;;;;;4970426;28;20035;-72
2023/03/06 04:48:59;;;;;;;5.40;2.75;;;3.10;99.90;;;;;;4967187;28;20138;-72
2023/03/06 04:51:25;;;;;;;7.78;2.45;;;3.10;99.90;;;;;;4969140;28;20117;-72
2023/03/06 04:53:51;;;;;;;9.02;2.53;;;3.10;99.90;;;;;;4968408;28;20066;-73
2023/03/06 04:56:17;;;;;;;5.57;2.05;;;3.10;99.90;;;;;;4972372;28;20101;-72
2023/03/06 04:58:43;;;;;;;3.33;1.80;;;3.10;99.90;;;;;;4968668;28;20490;-73
2023/03/06 05:01:09;;;;;;;4.90;2.10;;;3.10;99.90;;;;;;4966637;28;20049;-72
2023/03/06 05:03:34;;;;;;;4.13;2.03;;;3.20;99.90;;;;;;4968097;28;20035;-72
2023/03/06 05:06:00;;;;;;;4.05;2.40;;;3.20;99.90;;;;;;4968088;28;20030;-73
2023/03/06 05:08:26;;;;;;;3.15;2.00;;;3.20;99.90;;;;;;4968452;28;20113;-72
2023/03/06 05:10:59;;;;;;;6.10;1.83;;;3.20;99.90;;;;;;4967996;28;20031;-72
2023/03/06 05:13:26;;;;;;;2.67;1.50;;;3.20;99.90;;;;;;4985728;28;20168;-73
2023/03/06 05:15:51;;;;;;;2.45;1.50;;;3.30;99.90;;;;;;4968084;28;20030;-72
2023/03/06 05:18:17;;;;;;;5.18;1.73;;;3.30;99.90;;;;;;4970737;28;20045;-73
2023/03/06 05:20:43;;;;;;;4.80;2.08;;;3.50;99.90;;;;;;4968303;28;20034;-72
2023/03/06 05:23:09;;;;;;;6.18;1.88;;;3.40;99.90;;;;;;4968028;28;20394;-72
2023/03/06 05:25:38;;;;;;;8.77;2.67;;;3.30;99.90;;;;;;4968624;28;20730;-72
2023/03/06 05:28:03;;;;;;;2.97;1.80;;;3.30;99.90;;;;;;4972069;28;20114;-73
2023/03/06 05:30:29;;;;;;;7.05;1.60;;;3.30;99.90;;;;;;4972850;28;20133;-74
2023/03/06 05:32:54;;;;;;;4.55;2.05;;;3.30;99.90;;;;;;4967472;28;20031;-73
2023/03/06 05:35:21;;;;;;;2.75;1.50;;;3.30;99.90;;;;;;4967636;28;20556;-73
2023/03/06 05:37:48;;;;;;;2.92;1.70;;;3.30;99.90;;;;;;4967278;28;20578;-73
2023/03/06 05:40:14;;;;;;;4.80;1.92;;;3.30;99.90;;;;;;4966622;28;20049;-73
2023/03/06 05:42:40;;;;;;;3.90;1.40;;;3.30;99.90;;;;;;4997584;28;20086;-73
2023/03/06 05:45:07;;;;;;;4.05;1.30;;;3.30;99.90;;;;;;4966836;28;20031;-73
2023/03/06 05:47:32;;;;;;;2.20;1.33;;;3.30;99.90;;;;;;4967264;28;20041;-73
2023/03/06 05:49:58;;;;;;;2.95;1.33;;;3.30;99.90;;;;;;4967521;28;20031;-73
2023/03/06 05:52:23;;;;;;;3.33;1.05;;;3.30;99.90;;;;;;4967441;28;20455;-73
2023/03/06 05:54:51;;;;;;;3.28;1.58;;;3.20;99.90;;;;;;4968261;28;20039;-73
2023/03/06 05:57:22;;;;;;;3.03;1.33;;;3.20;99.90;;;;;;4970448;28;20109;-73
2023/03/06 05:59:48;;;;;;;2.22;1.00;;;3.10;99.90;;;;;;4970552;28;20049;-73
2023/03/06 06:02:15;;;;;;;2.00;1.10;;;3.10;99.90;;;;;;4965345;28;20069;-73
2023/03/06 06:04:40;;;;;;;2.38;1.05;;;3.00;99.90;;;;;;4967389;28;20421;-72
2023/03/06 06:07:06;;;;;;;1.83;0.82;;;3.00;99.90;;;;;;4966109;28;20035;-73
2023/03/06 06:09:32;;;;;;;2.80;0.85;;;2.90;99.90;;;;;;4972137;28;20579;-72
2023/03/06 06:12:00;;;;;;;2.05;0.82;;;3.00;99.90;;;;;;4968129;28;20383;-72
2023/03/06 06:14:27;;;;;;;4.05;1.38;;;2.90;99.90;;;;;;4981436;28;20053;-74
2023/03/06 06:16:55;;;;;;;2.28;0.88;;;2.90;99.90;;;;;;4965641;28;20117;-73
2023/03/06 06:19:22;;;;;;;3.25;1.20;;;2.90;99.90;;;;;;4977944;28;20513;-73
2023/03/06 06:21:50;;;;;;;3.78;1.63;;;2.90;99.90;;;;;;4988196;28;20042;-73
2023/03/06 06:24:18;;;;;;;4.13;1.15;;;2.90;99.90;;;;;;4989329;28;20042;-73
2023/03/06 06:26:44;;;;;;;2.45;1.20;;;2.90;99.90;;;;;;4988707;28;20030;-73
2023/03/06 06:29:10;;;;;;;3.45;1.58;;;2.90;99.90;;;;;;4992112;28;20046;-73
2023/03/06 06:31:37;;;;;;;2.60;1.20;;;2.90;99.90;;;;;;4993579;28;20079;-73
2023/03/06 06:34:04;;;;;;;2.65;0.90;;;2.90;99.90;;;;;;4989908;28;20042;-73
2023/03/06 06:36:30;;;;;;;3.45;1.17;;;2.90;99.90;;;;;;4989756;28;20033;-73
2023/03/06 06:38:55;;;;;;;1.67;0.93;;;3.00;99.90;;;;;;4989007;28;20510;-74
2023/03/06 06:41:21;;;;;;;4.00;1.30;;;3.00;99.90;;;;;;4971759;28;21626;-73
2023/03/06 06:43:47;;;;;;;7.50;2.08;;;3.00;99.90;;;;;;4989528;28;20038;-73
2023/03/06 06:46:12;;;;;;;2.13;1.10;;;3.10;99.90;;;;;;4988126;28;20062;-73
2023/03/06 06:48:38;;;;;;;7.15;1.40;;;3.10;99.90;;;;;;4988035;28;20049;-73
2023/03/06 06:51:04;;;;;;;2.83;1.00;;;3.10;99.90;;;;;;4988991;28;20356;-73
2023/03/06 06:53:29;;;;;;;3.55;1.27;;;3.10;99.90;;;;;;4991043;28;20030;-73
2023/03/06 06:55:57;;;;;;;1.20;0.60;;;3.10;99.90;;;;;;4992232;28;20038;-73
2023/03/06 06:58:23;;;;;;;4.43;0.77;;;3.10;99.90;;;;;;4971668;28;20137;-72
2023/03/06 07:00:49;;;;;;;2.72;0.70;;;3.10;99.90;;;;;;4990871;28;20117;-73
2023/03/06 07:03:14;;;;;;;1.75;1.02;;;3.10;99.90;;;;;;4988493;28;20080;-73
2023/03/06 07:05:40;;;;;;;4.68;1.00;;;3.20;99.90;;;;;;4989812;28;20119;-73
2023/03/06 07:08:06;;;;;;;1.42;0.80;;;3.20;99.90;;;;;;4974013;28;20265;-73
2023/03/06 07:10:32;;;;;;;1.85;0.60;;;3.20;99.90;;;;;;4986785;28;20039;-74
2023/03/06 07:12:58;;;;;;;2.67;0.63;;;3.30;99.90;;;;;;4971128;28;20041;-74
2023/03/06 07:15:25;;;;;;;2.33;0.60;;;3.30;99.90;;;;;;4973702;28;20376;-73
2023/03/06 07:17:52;;;;;;;2.85;0.70;;;3.30;99.90;;;;;;4989643;28;20528;-73
2023/03/06 07:20:19;;;;;;;7.72;1.83;;;3.40;99.90;;;;;;4987596;28;20050;-73
2023/03/06 07:22:45;;;;;;;5.55;0.93;;;3.50;99.90;;;;;;4987998;28;20403;-73
2023/03/06 07:25:10;;;;;;;3.50;0.70;;;3.50;99.90;;;;;;4972025;28;20034;-73
2023/03/06 07:27:36;;;;;;;1.73;0.65;;;3.50;99.90;;;;;;4989067;28;20042;-73
2023/03/06 07:30:02;;;;;;;6.95;0.88;;;3.60;99.90;;;;;;4987696;28;20033;-73
2023/03/06 07:32:27;;;;;;;2.30;0.70;;;3.60;99.90;;;;;;4971309;28;20538;-74
2023/03/06 07:34:53;;;;;;;1.10;0.57;;;3.60;99.90;;;;;;4988354;28;20045;-73
2023/03/06 07:37:19;;;;;;;1.45;0.60;;;3.70;99.90;;;;;;4988282;28;20118;-73
2023/03/06 07:39:44;;;;;;;2.25;0.43;;;3.70;99.90;;;;;;4988576;28;20068;-73
2023/03/06 07:42:14;;;;;;;2.03;0.60;;;3.80;99.90;;;;;;5003062;28;20112;-73
2023/03/06 07:44:40;;;;;;;2.40;0.57;;;3.80;99.90;;;;;;4987926;28;20653;-72
2023/03/06 07:47:05;;;;;;;1.17;0.73;;;3.90;99.90;;;;;;4969780;28;20066;-73
2023/03/06 07:49:32;;;;;;;1.90;0.55;;;4.00;99.90;;;;;;4987800;28;20039;-74
2023/03/06 07:52:00;;;;;;;1.42;0.35;;;4.10;99.90;;;;;;4987011;28;20038;-73
2023/03/06 07:54:25;;;;;;;1.48;0.73;;;4.20;99.90;;;;;;4987781;28;20046;-73
2023/03/06 07:56:51;;;;;;;1.73;1.05;;;4.30;99.90;;;;;;4987508;28;20438;-72
2023/03/06 07:59:17;;;;;;;2.05;0.93;;;4.30;99.90;;;;;;4991886;28;20117;-73
2023/03/06 08:01:43;;;;;;;1.15;0.43;;;4.30;99.90;;;;;;4986690;28;20050;-73
2023/03/06 08:04:09;;;;;;;2.38;0.43;;;4.20;99.90;;;;;;4970170;28;20037;-73
2023/03/06 08:06:34;;;;;;;0.85;0.40;;;4.20;99.90;;;;;;4988034;28;20042;-73
2023/03/06 08:09:00;;;;;;;3.25;1.13;;;4.20;99.90;;;;;;4991469;28;20034;-73
2023/03/06 08:11:28;;;;;;;1.00;0.38;;;4.20;99.90;;;;;;4992098;28;20034;-73
2023/03/06 08:13:55;;;;;;;0.98;0.35;;;4.30;99.90;;;;;;4991014;28;20030;-73
2023/03/06 08:16:23;;;;;;;2.33;0.40;;;4.50;99.90;;;;;;4985788;28;20384;-72
2023/03/06 08:18:48;;;;;;;1.38;0.30;;;4.60;99.90;;;;;;4969610;28;20061;-73
2023/03/06 08:21:27;;;;;;;1.52;0.40;;;4.60;99.90;;;;;;4985989;28;20391;-73
2023/03/06 08:23:52;;;;;;;0.63;0.50;;;4.90;99.90;;;;;;4989833;28;20533;-73
2023/03/06 08:26:24;;;;;;;1.50;0.63;;;5.00;99.90;;;;;;4968767;28;20046;-73
2023/03/06 08:28:51;;;;;;;0.75;0.38;;;5.10;99.90;;;;;;4970257;28;20434;-73
2023/03/06 08:31:32;;;;;;;1.35;0.60;;;5.10;99.90;;;;;;4949738;28;20058;-73
2023/03/06 08:34:02;;;;;;;0.75;0.40;;;5.10;99.90;;;;;;4952957;28;20038;-73
2023/03/06 08:36:28;;;;;;;1.77;0.30;;;5.10;99.90;;;;;;4953191;28;20589;-73
2023/03/06 08:38:55;;;;;;;0.82;0.40;;;5.20;99.90;;;;;;4974785;28;20494;-73
2023/03/06 08:41:21;;;;;;;2.10;0.40;;;5.20;99.90;;;;;;4967446;28;20042;-72
2023/03/06 08:43:47;;;;;;;2.05;0.30;;;5.20;99.90;;;;;;4967583;28;20078;-73
2023/03/06 08:46:13;;;;;;;1.90;0.50;;;5.30;99.90;;;;;;4967771;28;20760;-73
2023/03/06 08:48:39;;;;;;;0.73;0.43;;;5.30;99.90;;;;;;4970856;28;20426;-73
2023/03/06 08:51:07;;;;;;;0.50;0.20;;;5.20;99.90;;;;;;4967519;28;20054;-73
2023/03/06 08:53:32;;;;;;;7.38;0.50;;;5.20;99.90;;;;;;4970168;28;20054;-73
2023/03/06 08:55:58;;;;;;;0.73;0.40;;;5.30;99.90;;;;;;4967661;28;20728;-72
2023/03/06 08:58:23;;;;;;;1.88;0.30;;;5.40;99.90;;;;;;4967487;28;20089;-73
2023/03/06 09:00:50;;;;;;;2.08;0.40;;;5.40;99.90;;;;;;4967331;28;20065;-73
2023/03/06 09:03:16;;;;;;;2.38;0.65;;;5.50;99.90;;;;;;4965640;28;20031;-73
2023/03/06 09:05:42;;;;;;;2.95;0.40;;;5.60;99.90;;;;;;4967733;28;20038;-72
2023/03/06 09:08:08;;;;;;;0.60;0.20;;;5.70;99.90;;;;;;4970030;28;20109;-73
2023/03/06 09:10:33;;;;;;;2.95;0.40;;;5.60;99.90;;;;;;4968540;28;20035;-72
2023/03/06 09:12:59;;;;;;;1.05;0.20;;;5.60;99.90;;;;;;4965590;28;20512;-73
2023/03/06 09:15:25;;;;;;;0.38;0.30;;;5.70;99.90;;;;;;4967532;28;20027;-72
2023/03/06 09:17:51;;;;;;;3.00;0.40;;;5.80;99.90;;;;;;4967164;28;20069;-73
2023/03/06 09:20:17;;;;;;;0.32;0.20;;;5.80;99.90;;;;;;4965431;28;20044;-72
2023/03/06 09:22:44;;;;;;;1.15;0.20;;;5.90;99.90;;;;;;4966888;28;20467;-73
2023/03/06 09:25:12;;;;;;;0.73;0.20;;;6.00;99.90;;;;;;4969928;28;20134;-73
2023/03/06 09:27:38;;;;;;;1.58;0.25;;;6.10;99.90;;;;;;4967415;28;20372;-73
2023/03/06 09:30:04;;;;;;;1.13;0.20;;;6.20;99.90;;;;;;4969585;28;20046;-73
2023/03/06 09:32:30;;;;;;;0.30;0.10;;;6.20;99.90;;;;;;4969487;28;20554;-73
2023/03/06 09:34:55;;;;;;;0.85;0.10;;;6.20;99.90;;;;;;4966171;28;20039;-72
2023/03/06 09:37:21;;;;;;;0.40;0.28;;;6.20;99.90;;;;;;4971694;28;20050;-73
2023/03/06 09:39:47;;;;;;;0.20;0.10;;;6.30;99.90;;;;;;4966587;28;20134;-73
2023/03/06 09:42:19;;;;;;;0.70;0.20;;;6.40;99.90;;;;;;4972012;28;20027;-73
2023/03/06 09:44:57;;;;;;;0.45;0.20;;;6.40;99.90;;;;;;4967159;28;20097;-73
2023/03/06 09:48:02;;;;;;;0.65;0.20;;;6.50;99.90;;;;;;4969505;28;20042;-73
2023/03/06 09:50:50;;;;;;;0.32;0.10;;;6.60;99.90;;;;;;4953595;28;20043;-73
2023/03/06 09:53:36;;;;;;;0.55;0.10;;;6.70;99.90;;;;;;4969749;28;20696;-73
2023/03/06 09:56:10;;;;;;;0.13;0.10;;;6.80;99.90;;;;;;4965999;28;20031;-73
2023/03/06 09:58:46;;;;;;;0.13;0.03;;;6.90;99.90;;;;;;4970694;28;20030;-73
2023/03/06 10:01:35;;;;;;;4.22;0.20;;;7.00;99.90;;;;;;4971441;28;20259;-73
2023/03/06 10:04:09;;;;;;;5.55;0.30;;;7.10;99.90;;;;;;4967056;28;20057;-72
2023/03/06 10:06:47;;;;;;;2.63;0.10;;;7.10;99.90;;;;;;4971091;28;20026;-73
2023/03/06 10:09:21;;;;;;;1.30;0.15;;;7.10;99.90;;;;;;4970451;28;20035;-72
2023/03/06 10:12:03;;;;;;;0.32;0.20;;;7.30;99.90;;;;;;4969126;28;20396;-74
2023/03/06 10:14:37;;;;;;;1.67;0.32;;;7.30;99.90;;;;;;4968996;28;20035;-73
2023/03/06 10:17:05;;;;;;;2.70;0.30;;;7.40;99.90;;;;;;4967887;28;20042;-73
2023/03/06 10:19:35;;;;;;;3.08;0.30;;;7.40;99.90;;;;;;4969846;28;20035;-72
2023/03/06 10:22:13;;;;;;;3.67;0.70;;;7.50;99.90;;;;;;4970587;28;20090;-73
2023/03/06 10:24:52;;;;;;;1.90;0.10;;;7.50;99.90;;;;;;4968635;28;20031;-71
2023/03/06 10:27:50;;;;;;;0.75;0.20;;;7.60;99.90;;;;;;4976067;28;20035;-73
2023/03/06 10:30:32;;;;;;;0.30;0.10;;;7.70;99.90;;;;;;4966995;28;20086;-73
2023/03/06 10:33:02;;;;;;;1.45;0.25;;;7.60;99.90;;;;;;4971137;28;20041;-72
2023/03/06 10:35:48;;;;;;;0.40;0.20;;;7.60;99.90;;;;;;5000124;28;20046;-73
2023/03/06 10:38:21;;;;;;;0.40;0.05;;;7.60;99.90;;;;;;4968568;28;20066;-73
2023/03/06 10:41:09;;;;;;;1.00;0.30;;;7.60;99.90;;;;;;4970836;28;20438;-72
2023/03/06 10:43:55;;;;;;;1.38;0.20;;;7.60;99.90;;;;;;4987398;28;20084;-72
2023/03/06 10:46:32;;;;;;;0.60;0.10;;;7.60;99.90;;;;;;4992138;28;20039;-72
2023/03/06 10:49:00;;;;;;;5.28;1.15;;;7.70;99.90;;;;;;4987259;28;20030;-74
2023/03/06 10:51:28;;;;;;;2.13;0.30;;;7.90;99.90;;;;;;4992409;28;20072;-74
2023/03/06 10:54:19;;;;;;;0.77;0.22;;;8.10;99.90;;;;;;5000195;28;20065;-72
2023/03/06 10:56:46;;;;;;;3.90;0.45;;;8.10;99.90;;;;;;4984535;28;20516;-73
2023/03/06 10:59:28;;;;;;;3.15;1.13;;;8.30;99.90;;;;;;4990572;28;20125;-72
2023/03/06 11:01:56;;;;;;;3.70;0.20;;;8.10;99.90;;;;;;4986438;28;20041;-72
2023/03/06 11:04:28;;;;;;;0.60;0.20;;;8.10;99.90;;;;;;4985938;28;20035;-72
2023/03/06 11:07:13;;;;;;;2.15;0.30;;;8.00;99.90;;;;;;4985606;28;20038;-72
2023/03/06 11:09:41;;;;;;;1.40;0.45;;;8.10;99.90;;;;;;4994485;28;20029;-73
2023/03/06 11:12:40;;;;;;;0.25;0.20;;;8.20;99.90;;;;;;4988417;28;20495;-72
2023/03/06 11:15:05;;;;;;;2.78;1.20;;;8.20;99.90;;;;;;4978126;28;20049;-73
2023/03/06 11:17:31;;;;;;;2.97;0.40;;;8.20;99.90;;;;;;4988458;28;20038;-73
2023/03/06 11:20:32;;;;;;;0.90;0.30;;;8.30;99.90;;;;;;4989511;28;20563;-72
2023/03/06 11:23:16;;;;;;;1.02;0.20;;;8.30;99.90;;;;;;4980961;28;20039;-73
2023/03/06 11:25:55;;;;;;;2.10;0.43;;;8.40;99.90;;;;;;4988148;28;20575;-72
2023/03/06 11:28:39;;;;;;;0.80;0.40;;;8.30;99.90;;;;;;4985619;28;20038;-73
2023/03/06 11:31:22;;;;;;;1.88;0.20;;;8.30;99.90;;;;;;4986213;28;20034;-74
2023/03/06 11:34:01;;;;;;;1.00;0.20;;;8.30;99.90;;;;;;4972883;28;20065;-73
2023/03/06 11:36:37;;;;;;;2.22;0.40;;;8.30;99.90;;;;;;4986894;28;20107;-72
2023/03/06 11:39:32;;;;;;;1.15;0.63;;;8.20;99.90;;;;;;4971392;28;20038;-72
2023/03/06 11:42:19;;;;;;;1.08;0.25;;;8.10;99.90;;;;;;4974705;28;20455;-73
2023/03/06 11:45:09;;;;;;;2.28;0.50;;;7.90;99.90;;;;;;4987452;28;20098;-72
2023/03/06 11:47:38;;;;;;;5.35;0.40;;;7.70;99.90;;;;;;4986539;28;20038;-73
2023/03/06 11:50:30;;;;;;;1.25;0.43;;;7.70;99.90;;;;;;4970935;28;20130;-73
2023/03/06 11:53:01;;;;;;;1.13;0.45;;;7.60;99.90;;;;;;4981739;28;20097;-73
2023/03/06 11:55:40;;;;;;;2.80;0.60;;;7.60;99.90;;;;;;4988357;28;20034;-73
2023/03/06 11:58:34;;;;;;;1.95;1.10;;;7.60;99.90;;;;;;4987691;28;20041;-73
2023/03/06 12:01:17;;;;;;;6.28;0.60;;;7.60;99.90;;;;;;4997064;28;20542;-73
2023/03/06 12:03:53;;;;;;;4.03;0.60;;;7.70;99.90;;;;;;4967368;28;20212;-73
2023/03/06 12:06:32;;;;;;;2.38;0.90;;;7.80;99.90;;;;;;4965267;28;20038;-73
2023/03/06 12:09:13;;;;;;;4.47;1.50;;;7.80;99.90;;;;;;4983825;28;20611;-72
2023/03/06 12:12:03;;;;;;;3.83;1.20;;;7.90;99.90;;;;;;4971284;28;20477;-73
2023/03/06 12:14:45;;;;;;;3.25;1.77;;;8.10;99.90;;;;;;4991266;28;20491;-73
2023/03/06 12:17:25;;;;;;;3.85;1.23;;;8.30;99.90;;;;;;4987938;28;20060;-73
2023/03/06 12:20:24;;;;;;;4.23;1.47;;;8.30;99.90;;;;;;4998201;28;20100;-73
2023/03/06 12:22:52;;;;;;;5.22;1.52;;;8.30;99.90;;;;;;4983807;28;20750;-73
2023/03/06 12:25:28;;;;;;;3.15;1.60;;;8.30;99.90;;;;;;4999126;28;20216;-72
2023/03/06 12:28:18;;;;;;;5.47;1.70;;;8.30;99.90;;;;;;4993692;28;20053;-71
2023/03/06 12:31:02;;;;;;;3.42;1.58;;;8.40;99.90;;;;;;4993928;28;20042;-73
2023/03/06 12:33:34;;;;;;;8.15;2.00;;;8.40;99.90;;;;;;4985438;28;20483;-73
2023/03/06 12:36:28;;;;;;;5.28;1.75;;;8.50;99.90;;;;;;4991783;28;20040;-74
2023/03/06 12:38:57;;;;;;;3.97;1.75;;;8.60;99.90;;;;;;4991670;28;20036;-73
2023/03/06 12:41:37;;;;;;;3.70;1.67;;;8.60;99.90;;;;;;4998338;28;20134;-74
2023/03/06 12:44:18;;;;;;;10.02;2.30;;;8.70;99.90;;;;;;4993342;28;20058;-72
2023/03/06 12:46:48;;;;;;;5.88;2.05;;;8.60;99.90;;;;;;4989514;28;20049;-72
2023/03/06 12:49:19;;;;;;;3.85;2.00;;;8.50;99.90;;;;;;4987374;28;20038;-73
2023/03/06 12:51:45;;;;;;;3.03;1.70;;;8.40;99.90;;;;;;4990267;28;20486;-72
2023/03/06 12:54:13;;;;;;;4.85;1.92;;;8.30;99.90;;;;;;4988086;28;20039;-73
2023/03/06 12:56:41;;;;;;;6.85;2.63;;;8.30;99.90;;;;;;4990444;28;20069;-73
2023/03/06 12:59:34;;;;;;;5.85;2.15;;;8.30;99.90;;;;;;4986672;28;20495;-73
2023/03/06 13:02:20;;;;;;;6.25;2.65;;;8.30;99.90;;;;;;4985170;28;20092;-73
2023/03/06 13:04:55;;;;;;;7.18;2.53;;;8.40;99.90;;;;;;5004836;28;20038;-72
2023/03/06 13:07:57;;;;;;;5.63;2.95;;;8.50;99.90;;;;;;4983565;28;20084;-73
2023/03/06 13:10:30;;;;;;;6.30;3.13;;;8.60;99.90;;;;;;4983365;28;20530;-73